Terminal Aerodrome Forecast
Issued by NWS Green Bay, WI

Home | Current Version | Previous Version | Text Only | Print | Product List | Glossary On
Versions: 1 2 3 4 5 6 7 8 9 10 11 12 13 14 15 16 17
000
FTUS43 KGRB 311100
TAFGRB
TAF
KGRB 311120Z 3112/0112 35026G36KT P6SM SCT028 OVC040
      TEMPO 3112/3114 -SN BKN028
     FM311800 36020G30KT P6SM SCT035 BKN050
     FM312200 36018G28KT P6SM SCT050
     FM010100 35010G17KT P6SM SCT025
     FM010700 35006KT P6SM SKC=

USA.gov is the U.S. government's official web portal to all federal, state and local government web resources and services.